createdAt,value
2019-05-29T00:01:44.779Z,1.17
2019-05-29T00:04:14.635Z,1.10
2019-05-29T00:06:44.509Z,0.80
2019-05-29T00:09:14.500Z,0.90
2019-05-29T00:11:44.453Z,1.17
2019-05-29T00:14:22.870Z,1.00
2019-05-29T00:16:46.046Z,1.10
2019-05-29T00:19:16.041Z,1.10
2019-05-29T00:21:45.900Z,1.27
2019-05-29T00:24:15.862Z,1.20
2019-05-29T00:26:45.737Z,1.10
2019-05-29T00:29:15.571Z,1.33
2019-05-29T00:31:45.407Z,0.90
2019-05-29T00:34:15.309Z,1.40
2019-05-29T00:36:45.358Z,1.37
2019-05-29T00:39:15.193Z,1.37
2019-05-29T00:41:45.190Z,1.03
2019-05-29T00:44:15.443Z,1.07
2019-05-29T00:46:45.441Z,1.10
2019-05-29T00:49:16.714Z,1.10
2019-05-29T00:51:46.663Z,1.03
2019-05-29T00:54:16.603Z,1.00
2019-05-29T00:56:46.550Z,1.10
2019-05-29T00:59:17.404Z,1.30
2019-05-29T01:01:47.540Z,1.00
2019-05-29T01:04:17.881Z,1.30
2019-05-29T01:06:47.763Z,1.50
2019-05-29T01:09:18.581Z,1.27
2019-05-29T01:11:48.708Z,1.10
2019-05-29T01:14:19.393Z,1.30
2019-05-29T01:16:49.515Z,0.90
2019-05-29T01:19:25.210Z,0.90
2019-05-29T01:21:56.156Z,1.10
2019-05-29T01:24:26.310Z,1.20
2019-05-29T01:26:56.207Z,1.00
2019-05-29T01:29:26.093Z,0.80
2019-05-29T01:31:56.024Z,1.00
2019-05-29T01:34:25.862Z,1.13
2019-05-29T01:36:55.748Z,1.53
2019-05-29T01:39:25.630Z,1.00
2019-05-29T01:41:55.632Z,1.07
2019-05-29T01:44:25.473Z,1.10
2019-05-29T01:46:55.323Z,1.27
2019-05-29T01:49:25.153Z,1.13
2019-05-29T01:51:55.041Z,1.00
2019-05-29T01:54:24.993Z,1.20
2019-05-29T01:56:54.838Z,1.40
2019-05-29T01:59:24.692Z,1.20
2019-05-29T02:01:54.636Z,1.30
2019-05-29T02:04:24.481Z,1.00
2019-05-29T02:06:54.496Z,1.20
2019-05-29T02:09:24.371Z,1.03
2019-05-29T02:11:54.292Z,1.37
2019-05-29T02:14:24.850Z,1.20
2019-05-29T02:16:55.018Z,1.27
2019-05-29T02:19:24.853Z,1.13
2019-05-29T02:21:54.673Z,1.00
2019-05-29T02:24:25.416Z,1.37
2019-05-29T02:26:55.454Z,1.20
2019-05-29T02:29:25.850Z,1.17
2019-05-29T02:31:56.817Z,1.30
2019-05-29T02:34:27.933Z,1.10
2019-05-29T02:36:58.149Z,1.00
2019-05-29T02:39:29.425Z,1.57
2019-05-29T02:41:59.533Z,1.20
2019-05-29T02:44:29.710Z,0.93
2019-05-29T02:46:59.609Z,1.17
2019-05-29T02:49:30.298Z,1.10
2019-05-29T02:52:00.691Z,1.10
2019-05-29T02:54:32.260Z,1.10
2019-05-29T02:57:02.368Z,1.20
2019-05-29T02:59:32.323Z,1.50
2019-05-29T03:02:02.419Z,1.73
2019-05-29T03:04:33.060Z,1.30
2019-05-29T03:07:03.175Z,1.33
2019-05-29T03:09:33.127Z,1.60
2019-05-29T03:12:03.147Z,1.23
2019-05-29T03:14:34.619Z,1.47
2019-05-29T03:17:04.729Z,1.50
2019-05-29T03:19:37.166Z,1.40
2019-05-29T03:22:07.052Z,1.50
2019-05-29T03:24:36.960Z,1.63
2019-05-29T03:27:06.917Z,1.30
2019-05-29T03:29:38.530Z,1.57
2019-05-29T03:32:13.780Z,1.30
2019-05-29T03:34:46.137Z,1.50
2019-05-29T03:37:11.510Z,1.80
2019-05-29T03:39:41.382Z,1.30
2019-05-29T03:42:11.335Z,1.40
2019-05-29T03:44:41.414Z,1.50
2019-05-29T03:47:11.361Z,1.40
2019-05-29T03:49:41.336Z,1.67
2019-05-29T03:52:11.199Z,1.80
2019-05-29T03:54:41.044Z,1.17
2019-05-29T03:57:10.850Z,1.57
2019-05-29T03:59:40.729Z,1.53
2019-05-29T04:02:10.529Z,1.67
2019-05-29T04:04:40.463Z,1.40
2019-05-29T04:07:10.260Z,1.40
2019-05-29T04:09:40.085Z,2.33
2019-05-29T04:12:09.896Z,1.47
2019-05-29T04:14:39.799Z,1.30
2019-05-29T04:17:10.685Z,1.30
2019-05-29T04:19:41.070Z,1.30
2019-05-29T04:22:12.034Z,1.47
2019-05-29T04:24:42.435Z,1.40
2019-05-29T04:27:13.974Z,1.20
2019-05-29T04:29:45.051Z,1.20
2019-05-29T04:32:14.920Z,1.50
2019-05-29T04:34:44.741Z,1.20
2019-05-29T04:37:14.605Z,1.00
2019-05-29T04:39:44.452Z,1.60
2019-05-29T04:42:14.378Z,1.87
2019-05-29T04:44:44.461Z,1.40
2019-05-29T04:47:14.328Z,1.20
2019-05-29T04:49:44.325Z,1.67
2019-05-29T04:52:14.205Z,1.43
2019-05-29T04:54:44.154Z,1.30
2019-05-29T04:57:14.133Z,1.03
2019-05-29T04:59:48.408Z,1.30
2019-05-29T05:02:18.412Z,1.40
2019-05-29T05:04:48.985Z,1.40
2019-05-29T05:07:19.067Z,1.07
2019-05-29T05:09:48.950Z,1.00
2019-05-29T05:12:29.582Z,2.03
2019-05-29T05:14:59.766Z,1.10
2019-05-29T05:17:29.766Z,1.27
2019-05-29T05:19:59.598Z,1.60
2019-05-29T05:22:31.959Z,1.53
2019-05-29T05:25:01.203Z,1.47
2019-05-29T05:27:50.026Z,1.40
2019-05-29T05:30:20.097Z,1.57
2019-05-29T05:32:49.889Z,1.30
2019-05-29T05:35:19.745Z,1.40
2019-05-29T05:37:49.572Z,1.50
2019-05-29T05:40:19.578Z,1.40
2019-05-29T05:42:49.445Z,1.40
2019-05-29T05:45:19.614Z,1.50
2019-05-29T05:47:56.866Z,1.40
2019-05-29T05:50:21.322Z,1.27
2019-05-29T05:52:51.148Z,1.40
2019-05-29T05:55:21.187Z,1.40
2019-05-29T05:57:51.045Z,1.33
2019-05-29T06:00:31.914Z,1.40
2019-05-29T06:03:01.935Z,1.17
2019-05-29T06:05:32.180Z,1.93
2019-05-29T06:08:02.183Z,1.40
2019-05-29T06:10:32.188Z,1.43
2019-05-29T06:13:02.036Z,1.57
2019-05-29T06:15:32.365Z,1.50
2019-05-29T06:18:20.025Z,1.30
2019-05-29T06:20:36.789Z,1.90
2019-05-29T06:23:06.663Z,1.83
2019-05-29T06:25:38.633Z,1.37
2019-05-29T06:28:08.255Z,1.73
2019-05-29T06:30:39.328Z,1.57
2019-05-29T06:33:09.721Z,1.10
2019-05-29T06:35:39.746Z,1.60
2019-05-29T06:38:09.693Z,1.40
2019-05-29T06:40:42.116Z,1.30
2019-05-29T06:43:22.076Z,1.47
2019-05-29T06:45:52.195Z,1.10
2019-05-29T06:48:41.617Z,1.07
2019-05-29T06:50:58.712Z,1.10
2019-05-29T06:53:28.668Z,0.87
2019-05-29T06:55:59.642Z,1.30
2019-05-29T06:58:30.426Z,1.10
2019-05-29T07:01:00.504Z,1.27
2019-05-29T07:03:30.442Z,1.10
2019-05-29T07:06:00.342Z,0.90
2019-05-29T07:08:38.616Z,1.10
2019-05-29T07:11:01.782Z,1.40
2019-05-29T07:13:34.996Z,0.90
2019-05-29T07:16:03.470Z,2.00
2019-05-29T07:18:33.983Z,1.50
2019-05-29T07:21:03.792Z,1.10
2019-05-29T07:23:33.806Z,1.20
2019-05-29T07:26:06.791Z,1.10
2019-05-29T07:28:37.278Z,1.00
2019-05-29T07:31:08.258Z,0.90
2019-05-29T07:33:38.989Z,1.40
2019-05-29T07:36:10.085Z,1.00
2019-05-29T07:38:40.100Z,0.80
2019-05-29T07:41:10.155Z,1.30
2019-05-29T07:43:40.056Z,0.80
2019-05-29T07:46:10.053Z,0.93
2019-05-29T07:48:40.436Z,1.20
2019-05-29T07:51:10.327Z,1.30
2019-05-29T07:53:40.208Z,1.53
2019-05-29T07:56:22.231Z,1.00
2019-05-29T07:58:43.540Z,1.03
2019-05-29T08:01:13.981Z,0.70
2019-05-29T08:03:45.340Z,1.00
2019-05-29T08:06:15.680Z,1.00
2019-05-29T08:08:45.523Z,1.00
2019-05-29T08:11:15.589Z,0.97
2019-05-29T08:13:45.655Z,0.70
2019-05-29T08:16:15.544Z,0.73
2019-05-29T08:18:48.234Z,1.00
2019-05-29T08:21:17.402Z,1.10
2019-05-29T08:23:48.495Z,0.90
2019-05-29T08:26:21.445Z,1.10
2019-05-29T08:28:51.398Z,1.00
2019-05-29T08:31:21.433Z,0.97
2019-05-29T08:33:51.471Z,0.70
2019-05-29T08:36:21.378Z,0.67
2019-05-29T08:38:51.795Z,0.83
2019-05-29T08:41:21.977Z,1.10
2019-05-29T08:43:52.740Z,0.80
2019-05-29T08:46:22.980Z,1.03
2019-05-29T08:48:53.141Z,0.70
2019-05-29T08:51:23.075Z,0.87
2019-05-29T08:53:54.712Z,0.90
2019-05-29T08:56:25.020Z,0.77
2019-05-29T08:58:54.925Z,1.20
2019-05-29T09:01:24.859Z,1.00
2019-05-29T09:03:54.811Z,0.90
2019-05-29T09:06:24.645Z,0.90
2019-05-29T09:08:55.148Z,0.83
2019-05-29T09:11:25.108Z,1.27
2019-05-29T09:13:55.000Z,0.93
2019-05-29T09:16:24.980Z,1.10
2019-05-29T09:18:54.849Z,0.77
2019-05-29T09:21:26.739Z,1.03
2019-05-29T09:23:58.939Z,1.00
2019-05-29T09:26:28.864Z,1.30
2019-05-29T09:28:58.742Z,0.83
2019-05-29T09:31:28.638Z,0.90
2019-05-29T09:33:58.755Z,1.03
2019-05-29T09:36:28.550Z,0.87
2019-05-29T09:38:58.455Z,1.10
2019-05-29T09:41:28.253Z,0.93
2019-05-29T09:44:00.056Z,0.90
2019-05-29T09:46:29.512Z,0.80
2019-05-29T09:49:01.617Z,1.10
2019-05-29T09:51:30.931Z,0.90
2019-05-29T09:54:01.451Z,1.03
2019-05-29T09:56:32.434Z,0.70
2019-05-29T09:59:03.710Z,0.70
2019-05-29T10:01:33.800Z,0.97
2019-05-29T10:04:06.097Z,0.73
2019-05-29T10:06:35.287Z,0.90
2019-05-29T10:09:08.006Z,0.73
2019-05-29T10:11:37.994Z,0.90
2019-05-29T10:14:07.935Z,1.30
2019-05-29T10:16:37.967Z,0.83
2019-05-29T10:19:07.991Z,1.00
2019-05-29T10:21:40.564Z,0.70
2019-05-29T10:24:09.554Z,1.10
2019-05-29T10:26:39.443Z,0.90
2019-05-29T10:29:10.677Z,0.80
2019-05-29T10:31:42.124Z,0.90
2019-05-29T10:34:12.106Z,0.90
2019-05-29T10:36:42.309Z,0.80
2019-05-29T10:39:13.018Z,1.10
2019-05-29T10:41:43.163Z,1.00
2019-05-29T10:44:13.199Z,1.07
2019-05-29T10:46:45.995Z,1.17
2019-05-29T10:49:14.928Z,1.10
2019-05-29T10:52:04.176Z,0.57
2019-05-29T10:54:16.704Z,0.90
2019-05-29T10:56:46.911Z,1.00
2019-05-29T10:59:16.819Z,0.80
2019-05-29T11:01:47.048Z,0.90
2019-05-29T11:04:17.111Z,0.70
2019-05-29T11:06:48.043Z,1.13
2019-05-29T11:09:17.963Z,0.77
2019-05-29T11:11:48.412Z,1.10
2019-05-29T11:14:18.500Z,0.87
2019-05-29T11:16:49.062Z,1.43
2019-05-29T11:19:21.391Z,0.80
2019-05-29T11:21:51.742Z,1.07
2019-05-29T11:24:21.703Z,0.80
2019-05-29T11:26:52.536Z,0.70
2019-05-29T11:29:22.594Z,1.00
2019-05-29T11:31:53.393Z,0.93
2019-05-29T11:34:23.761Z,1.07
2019-05-29T11:36:54.250Z,0.93
2019-05-29T11:39:24.411Z,1.00
2019-05-29T11:41:54.825Z,0.93
2019-05-29T11:44:25.208Z,0.80
2019-05-29T11:46:56.116Z,0.97
2019-05-29T11:49:26.143Z,1.77
2019-05-29T11:52:18.702Z,0.67
2019-05-29T11:54:27.628Z,0.97
2019-05-29T11:56:57.501Z,0.80
2019-05-29T11:59:27.490Z,0.83
2019-05-29T12:01:58.567Z,0.90
2019-05-29T12:04:28.969Z,0.77
2019-05-29T12:06:59.514Z,1.17
2019-05-29T12:09:33.310Z,1.47
2019-05-29T12:12:02.159Z,1.10
2019-05-29T12:14:32.365Z,0.80
2019-05-29T12:17:02.774Z,0.80
2019-05-29T12:19:32.935Z,1.10
2019-05-29T12:22:03.001Z,0.97
2019-05-29T12:24:32.907Z,0.83
2019-05-29T12:27:02.945Z,1.30
2019-05-29T12:29:32.856Z,0.70
2019-05-29T12:32:09.766Z,1.07
2019-05-29T12:34:45.181Z,1.10
2019-05-29T12:37:08.977Z,0.90
2019-05-29T12:39:38.919Z,1.40
2019-05-29T12:42:08.862Z,0.80
2019-05-29T12:44:40.466Z,1.20
2019-05-29T12:47:10.369Z,0.70
2019-05-29T12:49:43.128Z,1.40
2019-05-29T12:52:13.438Z,1.50
2019-05-29T12:54:43.304Z,1.00
2019-05-29T12:57:13.170Z,1.00
2019-05-29T12:59:46.070Z,1.23
2019-05-29T13:02:16.041Z,0.83
2019-05-29T13:05:06.778Z,1.00
2019-05-29T13:07:17.399Z,0.90
2019-05-29T13:09:47.481Z,2.63
2019-05-29T13:12:17.466Z,1.13
2019-05-29T13:14:47.295Z,1.00
2019-05-29T13:17:17.441Z,1.00
2019-05-29T13:19:48.573Z,12.83
2019-05-29T13:22:18.605Z,1.10
2019-05-29T13:24:48.563Z,1.10
2019-05-29T13:27:18.481Z,0.73
2019-05-29T13:29:48.432Z,1.37
2019-05-29T13:32:18.288Z,2.37
2019-05-29T13:34:48.242Z,1.60
2019-05-29T13:37:18.250Z,1.00
2019-05-29T13:39:48.081Z,1.23
2019-05-29T13:42:18.150Z,1.20
2019-05-29T13:44:48.173Z,0.60
2019-05-29T13:47:18.003Z,1.03
2019-05-29T13:49:48.083Z,1.20
2019-05-29T13:52:18.069Z,1.27
2019-05-29T13:54:48.063Z,0.70
2019-05-29T13:57:17.918Z,0.97
2019-05-29T13:59:47.928Z,1.00
2019-05-29T14:02:17.794Z,1.10
2019-05-29T14:04:47.643Z,0.73
2019-05-29T14:07:17.629Z,0.60
2019-05-29T14:09:47.463Z,0.70
2019-05-29T14:12:17.285Z,0.77
2019-05-29T14:14:47.284Z,0.93
2019-05-29T14:17:18.404Z,0.80
2019-05-29T14:19:48.282Z,0.80
2019-05-29T14:22:18.124Z,1.10
2019-05-29T14:24:47.981Z,0.90
2019-05-29T14:27:17.809Z,0.80
2019-05-29T14:29:47.689Z,0.70
2019-05-29T14:32:17.583Z,0.80
2019-05-29T14:34:47.451Z,0.93
2019-05-29T14:37:17.319Z,0.90
2019-05-29T14:39:47.331Z,1.13
2019-05-29T14:42:17.286Z,0.93
2019-05-29T14:44:47.127Z,1.60
2019-05-29T14:47:16.987Z,0.90
2019-05-29T14:49:46.866Z,0.63
2019-05-29T14:52:16.808Z,1.03
2019-05-29T14:54:46.730Z,0.67
2019-05-29T14:57:25.141Z,0.80
2019-05-29T14:59:48.446Z,1.10
2019-05-29T15:02:23.626Z,0.57
2019-05-29T15:04:49.952Z,0.80
2019-05-29T15:07:22.828Z,0.87
2019-05-29T15:09:51.376Z,1.07
2019-05-29T15:12:21.346Z,1.00
2019-05-29T15:14:51.222Z,0.47
2019-05-29T15:17:21.374Z,1.13
2019-05-29T15:19:51.245Z,0.87
2019-05-29T15:22:21.034Z,0.90
2019-05-29T15:25:03.165Z,0.90
2019-05-29T15:27:22.346Z,0.77
2019-05-29T15:29:54.528Z,0.90
2019-05-29T15:32:24.356Z,0.90
2019-05-29T15:34:54.191Z,1.13
2019-05-29T15:37:23.983Z,1.10
2019-05-29T15:39:53.859Z,0.80
2019-05-29T15:42:25.144Z,1.63
2019-05-29T15:44:55.137Z,0.83
2019-05-29T15:47:24.972Z,0.80
2019-05-29T15:49:58.655Z,0.70
2019-05-29T15:52:31.441Z,0.70
2019-05-29T15:55:23.568Z,1.17
2019-05-29T15:57:38.595Z,0.90
2019-05-29T16:00:11.196Z,0.60
2019-05-29T16:02:41.675Z,0.70
2019-05-29T16:05:13.389Z,0.80
2019-05-29T16:07:44.928Z,0.43
2019-05-29T16:10:18.676Z,0.80
2019-05-29T16:12:47.900Z,0.73
2019-05-29T16:15:19.420Z,0.70
2019-05-29T16:17:49.611Z,1.47
2019-05-29T16:20:19.887Z,0.80
2019-05-29T16:22:49.719Z,0.77
2019-05-29T16:25:37.871Z,0.70
2019-05-29T16:27:58.008Z,0.93
2019-05-29T16:30:30.601Z,1.20
2019-05-29T16:33:01.679Z,0.87
2019-05-29T16:35:37.142Z,0.80
2019-05-29T16:38:06.201Z,0.80
2019-05-29T16:40:36.181Z,0.90
2019-05-29T16:43:09.861Z,0.70
2019-05-29T16:45:41.232Z,0.90
2019-05-29T16:48:15.064Z,0.80
2019-05-29T16:50:44.771Z,0.90
2019-05-29T16:53:17.000Z,0.60
2019-05-29T16:55:53.859Z,0.90
2019-05-29T16:58:23.427Z,0.73
2019-05-29T17:00:53.642Z,0.80
2019-05-29T17:03:23.787Z,0.67
2019-05-29T17:05:53.877Z,0.90
2019-05-29T17:08:27.820Z,1.30
2019-05-29T17:10:57.904Z,0.60
2019-05-29T17:13:27.890Z,0.70
2019-05-29T17:15:58.481Z,0.80
2019-05-29T17:18:29.167Z,0.77
2019-05-29T17:21:01.135Z,0.80
2019-05-29T17:23:31.613Z,1.13
2019-05-29T17:26:10.847Z,1.30
2019-05-29T17:28:33.513Z,1.30
2019-05-29T17:31:03.567Z,0.90
2019-05-29T17:33:33.548Z,0.80
2019-05-29T17:36:03.605Z,0.77
2019-05-29T17:38:33.422Z,1.00
2019-05-29T17:41:03.340Z,0.77
2019-05-29T17:43:33.194Z,0.90
2019-05-29T17:46:03.105Z,0.70
2019-05-29T17:48:32.976Z,1.00
2019-05-29T17:51:03.201Z,0.77
2019-05-29T17:53:33.222Z,0.67
2019-05-29T17:56:03.310Z,0.93
2019-05-29T17:58:33.142Z,0.70
2019-05-29T18:01:03.077Z,0.90
2019-05-29T18:03:32.914Z,0.70
2019-05-29T18:06:02.736Z,0.80
2019-05-29T18:08:32.598Z,0.70
2019-05-29T18:11:02.468Z,1.00
2019-05-29T18:13:32.568Z,0.90
2019-05-29T18:16:02.549Z,0.70
2019-05-29T18:18:32.390Z,1.10
2019-05-29T18:21:03.568Z,0.90
2019-05-29T18:23:33.592Z,1.03
2019-05-29T18:26:03.524Z,0.70
2019-05-29T18:28:33.361Z,1.07
2019-05-29T18:31:03.374Z,0.97
2019-05-29T18:33:33.267Z,0.70
2019-05-29T18:36:03.162Z,1.30
2019-05-29T18:38:35.460Z,0.80
2019-05-29T18:41:07.552Z,0.80
2019-05-29T18:43:38.870Z,0.87
2019-05-29T18:46:08.799Z,0.97
2019-05-29T18:48:38.674Z,0.90
2019-05-29T18:51:08.497Z,0.70
2019-05-29T18:53:38.909Z,0.90
2019-05-29T18:56:09.195Z,1.40
2019-05-29T18:58:39.131Z,1.00
2019-05-29T19:01:09.157Z,1.73
2019-05-29T19:03:40.554Z,2.80
2019-05-29T19:06:10.721Z,3.23
2019-05-29T19:08:40.638Z,2.13
2019-05-29T19:11:10.459Z,1.60
2019-05-29T19:13:41.915Z,2.63
2019-05-29T19:16:11.808Z,2.30
2019-05-29T19:18:41.699Z,2.50
2019-05-29T19:21:11.556Z,2.30
2019-05-29T19:23:41.551Z,2.37
2019-05-29T19:26:11.710Z,2.63
2019-05-29T19:28:41.888Z,2.20
2019-05-29T19:31:12.117Z,2.20
2019-05-29T19:33:42.130Z,2.20
2019-05-29T19:36:13.714Z,2.70
2019-05-29T19:38:44.917Z,3.13
2019-05-29T19:41:14.741Z,2.90
2019-05-29T19:43:44.885Z,3.00
2019-05-29T19:46:30.697Z,3.40
2019-05-29T19:48:46.633Z,3.70
2019-05-29T19:51:16.467Z,3.80
2019-05-29T19:53:46.901Z,3.40
2019-05-29T19:56:16.806Z,2.97
2019-05-29T19:58:47.279Z,2.53
2019-05-29T20:01:30.696Z,2.13
2019-05-29T20:03:50.964Z,2.70
2019-05-29T20:06:20.817Z,2.57
2019-05-29T20:08:51.073Z,2.30
2019-05-29T20:11:20.985Z,2.47
2019-05-29T20:13:51.051Z,2.50
2019-05-29T20:16:20.860Z,2.57
2019-05-29T20:18:50.833Z,2.90
2019-05-29T20:21:20.802Z,2.37
2019-05-29T20:23:51.581Z,2.60
2019-05-29T20:26:21.405Z,4.70
2019-05-29T20:28:51.627Z,4.87
2019-05-29T20:31:21.577Z,5.47
2019-05-29T20:33:52.343Z,5.40
2019-05-29T20:36:22.227Z,4.30
2019-05-29T20:38:52.583Z,3.40
2019-05-29T20:41:24.995Z,3.00
2019-05-29T20:43:54.982Z,3.10
2019-05-29T20:46:24.804Z,3.60
2019-05-29T20:48:54.730Z,3.83
2019-05-29T20:51:26.782Z,4.00
2019-05-29T20:53:56.830Z,3.80
2019-05-29T20:56:26.668Z,3.97
2019-05-29T20:58:57.094Z,3.67
2019-05-29T21:01:27.098Z,3.83
2019-05-29T21:03:56.922Z,4.03
2019-05-29T21:06:26.933Z,4.10
2019-05-29T21:08:56.798Z,4.10
2019-05-29T21:11:26.771Z,4.23
2019-05-29T21:13:58.879Z,4.20
2019-05-29T21:16:28.780Z,4.40
2019-05-29T21:18:58.611Z,5.10
2019-05-29T21:21:28.620Z,4.50
2019-05-29T21:23:58.490Z,4.47
2019-05-29T21:26:28.398Z,4.83
2019-05-29T21:28:58.327Z,4.63
2019-05-29T21:31:28.182Z,4.57
2019-05-29T21:33:58.600Z,5.10
2019-05-29T21:36:28.770Z,4.80
2019-05-29T21:38:58.575Z,4.67
2019-05-29T21:41:28.414Z,5.40
2019-05-29T21:43:58.388Z,4.47
2019-05-29T21:46:28.307Z,4.50
2019-05-29T21:48:58.191Z,4.30
2019-05-29T21:51:28.060Z,3.93
2019-05-29T21:53:58.481Z,4.30
2019-05-29T21:56:28.339Z,4.50
2019-05-29T21:59:03.767Z,3.83
2019-05-29T22:01:30.478Z,4.03
2019-05-29T22:04:00.597Z,3.97
2019-05-29T22:06:30.563Z,3.50
2019-05-29T22:09:00.563Z,4.03
2019-05-29T22:11:30.488Z,4.00
2019-05-29T22:14:00.662Z,3.97
2019-05-29T22:16:30.723Z,3.40
2019-05-29T22:19:03.859Z,3.30
2019-05-29T22:21:32.076Z,3.30
2019-05-29T22:24:01.919Z,3.10
2019-05-29T22:26:32.191Z,3.50
2019-05-29T22:29:17.386Z,3.00
2019-05-29T22:31:33.761Z,3.17
2019-05-29T22:34:03.870Z,3.50
2019-05-29T22:36:33.688Z,3.50
2019-05-29T22:39:03.831Z,2.80
2019-05-29T22:41:33.792Z,3.03
2019-05-29T22:44:03.671Z,3.00
2019-05-29T22:46:33.490Z,3.10
2019-05-29T22:49:03.352Z,2.90
2019-05-29T22:51:33.244Z,3.10
2019-05-29T22:54:03.080Z,3.03
2019-05-29T22:56:32.945Z,2.80
2019-05-29T22:59:02.820Z,2.67
2019-05-29T23:01:32.862Z,2.47
2019-05-29T23:04:02.655Z,2.60
2019-05-29T23:06:32.448Z,3.07
2019-05-29T23:09:02.564Z,2.83
2019-05-29T23:11:32.581Z,2.73
2019-05-29T23:14:02.546Z,3.17
2019-05-29T23:16:32.413Z,2.60
2019-05-29T23:19:02.780Z,3.23
2019-05-29T23:21:32.905Z,2.90
2019-05-29T23:24:03.761Z,2.90
2019-05-29T23:26:33.729Z,3.30
2019-05-29T23:29:03.888Z,3.07
2019-05-29T23:31:33.981Z,3.03
2019-05-29T23:34:04.014Z,2.93
2019-05-29T23:36:33.958Z,3.23
2019-05-29T23:39:04.664Z,2.60
2019-05-29T23:41:34.575Z,3.17
2019-05-29T23:44:04.543Z,3.87
2019-05-29T23:46:34.610Z,4.10
2019-05-29T23:49:04.583Z,3.90
2019-05-29T23:51:34.431Z,3.57
2019-05-29T23:54:04.558Z,3.67
2019-05-29T23:56:34.419Z,4.23
2019-05-29T23:59:04.233Z,4.00
